sensor_id;sensor_type;location;lat;lon;timestamp;temperature;humidity
16517;DHT22;8371;52.272;9.746;2024-01-30T00:00:07;7.60;73.50
16517;DHT22;8371;52.272;9.746;2024-01-30T00:02:33;7.60;73.50
16517;DHT22;8371;52.272;9.746;2024-01-30T00:04:59;7.70;73.60
16517;DHT22;8371;52.272;9.746;2024-01-30T00:07:25;7.60;73.70
16517;DHT22;8371;52.272;9.746;2024-01-30T00:09:50;7.60;73.80
16517;DHT22;8371;52.272;9.746;2024-01-30T00:12:16;7.70;73.90
16517;DHT22;8371;52.272;9.746;2024-01-30T00:14:42;7.70;74.10
16517;DHT22;8371;52.272;9.746;2024-01-30T00:17:09;7.70;74.10
16517;DHT22;8371;52.272;9.746;2024-01-30T00:19:35;7.70;74.10
16517;DHT22;8371;52.272;9.746;2024-01-30T00:22:00;7.70;74.00
16517;DHT22;8371;52.272;9.746;2024-01-30T00:24:26;7.70;74.20
16517;DHT22;8371;52.272;9.746;2024-01-30T00:26:52;7.80;74.20
16517;DHT22;8371;52.272;9.746;2024-01-30T00:29:17;7.80;74.30
16517;DHT22;8371;52.272;9.746;2024-01-30T00:31:45;7.80;74.10
16517;DHT22;8371;52.272;9.746;2024-01-30T00:34:11;7.80;74.10
16517;DHT22;8371;52.272;9.746;2024-01-30T00:36:37;7.80;74.10
16517;DHT22;8371;52.272;9.746;2024-01-30T00:39:03;7.80;74.30
16517;DHT22;8371;52.272;9.746;2024-01-30T00:41:30;7.80;74.10
16517;DHT22;8371;52.272;9.746;2024-01-30T00:43:56;7.80;74.10
16517;DHT22;8371;52.272;9.746;2024-01-30T00:46:22;7.90;74.10
16517;DHT22;8371;52.272;9.746;2024-01-30T00:48:48;7.80;73.90
16517;DHT22;8371;52.272;9.746;2024-01-30T00:51:13;7.80;74.10
16517;DHT22;8371;52.272;9.746;2024-01-30T00:53:39;7.80;73.90
16517;DHT22;8371;52.272;9.746;2024-01-30T00:56:07;7.80;74.40
16517;DHT22;8371;52.272;9.746;2024-01-30T00:58:33;7.80;74.10
16517;DHT22;8371;52.272;9.746;2024-01-30T01:00:59;7.80;74.10
16517;DHT22;8371;52.272;9.746;2024-01-30T01:03:24;7.80;74.20
16517;DHT22;8371;52.272;9.746;2024-01-30T01:05:50;7.80;74.20
16517;DHT22;8371;52.272;9.746;2024-01-30T01:08:16;7.70;74.10
16517;DHT22;8371;52.272;9.746;2024-01-30T01:10:41;7.80;74.30
16517;DHT22;8371;52.272;9.746;2024-01-30T01:13:07;7.80;74.40
16517;DHT22;8371;52.272;9.746;2024-01-30T01:15:33;7.80;74.40
16517;DHT22;8371;52.272;9.746;2024-01-30T01:17:59;7.80;74.60
16517;DHT22;8371;52.272;9.746;2024-01-30T01:20:25;7.80;74.40
16517;DHT22;8371;52.272;9.746;2024-01-30T01:22:50;7.80;74.40
16517;DHT22;8371;52.272;9.746;2024-01-30T01:25:18;7.80;74.50
16517;DHT22;8371;52.272;9.746;2024-01-30T01:27:43;7.80;74.50
16517;DHT22;8371;52.272;9.746;2024-01-30T01:30:11;7.80;74.70
16517;DHT22;8371;52.272;9.746;2024-01-30T01:32:39;7.80;74.70
16517;DHT22;8371;52.272;9.746;2024-01-30T01:35:06;7.80;74.70
16517;DHT22;8371;52.272;9.746;2024-01-30T01:37:32;7.80;74.80
16517;DHT22;8371;52.272;9.746;2024-01-30T01:39:58;7.80;74.80
16517;DHT22;8371;52.272;9.746;2024-01-30T01:42:23;7.80;74.90
16517;DHT22;8371;52.272;9.746;2024-01-30T01:44:49;7.80;74.90
16517;DHT22;8371;52.272;9.746;2024-01-30T01:47:16;7.80;74.90
16517;DHT22;8371;52.272;9.746;2024-01-30T01:49:42;7.90;75.20
16517;DHT22;8371;52.272;9.746;2024-01-30T01:52:08;7.90;75.10
16517;DHT22;8371;52.272;9.746;2024-01-30T01:54:34;7.90;75.20
16517;DHT22;8371;52.272;9.746;2024-01-30T01:56:59;7.90;75.40
16517;DHT22;8371;52.272;9.746;2024-01-30T01:59:25;8.00;75.60
16517;DHT22;8371;52.272;9.746;2024-01-30T02:01:52;8.00;76.20
16517;DHT22;8371;52.272;9.746;2024-01-30T02:04:18;8.10;75.50
16517;DHT22;8371;52.272;9.746;2024-01-30T02:06:44;8.10;75.40
16517;DHT22;8371;52.272;9.746;2024-01-30T02:09:10;8.10;75.30
16517;DHT22;8371;52.272;9.746;2024-01-30T02:11:35;8.10;75.40
16517;DHT22;8371;52.272;9.746;2024-01-30T02:14:04;8.20;75.20
16517;DHT22;8371;52.272;9.746;2024-01-30T02:16:31;8.20;75.20
16517;DHT22;8371;52.272;9.746;2024-01-30T02:18:57;8.20;75.10
16517;DHT22;8371;52.272;9.746;2024-01-30T02:21:23;8.20;75.10
16517;DHT22;8371;52.272;9.746;2024-01-30T02:24:08;8.20;75.00
16517;DHT22;8371;52.272;9.746;2024-01-30T02:26:34;8.40;75.10
16517;DHT22;8371;52.272;9.746;2024-01-30T02:28:59;8.20;75.00
16517;DHT22;8371;52.272;9.746;2024-01-30T02:31:25;8.20;75.00
16517;DHT22;8371;52.272;9.746;2024-01-30T02:33:51;8.20;75.00
16517;DHT22;8371;52.272;9.746;2024-01-30T02:36:17;8.20;75.10
16517;DHT22;8371;52.272;9.746;2024-01-30T02:38:43;8.20;75.20
16517;DHT22;8371;52.272;9.746;2024-01-30T02:41:08;8.20;75.30
16517;DHT22;8371;52.272;9.746;2024-01-30T02:43:34;8.20;75.30
16517;DHT22;8371;52.272;9.746;2024-01-30T02:46:00;8.20;75.40
16517;DHT22;8371;52.272;9.746;2024-01-30T02:48:26;8.20;75.40
16517;DHT22;8371;52.272;9.746;2024-01-30T02:50:52;8.20;75.30
16517;DHT22;8371;52.272;9.746;2024-01-30T02:53:17;8.30;75.40
16517;DHT22;8371;52.272;9.746;2024-01-30T02:55:43;8.30;75.30
16517;DHT22;8371;52.272;9.746;2024-01-30T02:58:09;8.30;75.30
16517;DHT22;8371;52.272;9.746;2024-01-30T03:00:34;8.30;75.30
16517;DHT22;8371;52.272;9.746;2024-01-30T03:03:00;8.30;75.20
16517;DHT22;8371;52.272;9.746;2024-01-30T03:05:26;8.30;75.10
16517;DHT22;8371;52.272;9.746;2024-01-30T03:07:52;8.30;75.20
16517;DHT22;8371;52.272;9.746;2024-01-30T03:10:18;8.30;75.20
16517;DHT22;8371;52.272;9.746;2024-01-30T03:12:44;8.30;75.90
16517;DHT22;8371;52.272;9.746;2024-01-30T03:15:09;8.30;75.10
16517;DHT22;8371;52.272;9.746;2024-01-30T03:17:35;8.30;75.20
16517;DHT22;8371;52.272;9.746;2024-01-30T03:20:03;8.20;75.00
16517;DHT22;8371;52.272;9.746;2024-01-30T03:22:29;8.20;75.10
16517;DHT22;8371;52.272;9.746;2024-01-30T03:24:55;8.20;75.10
16517;DHT22;8371;52.272;9.746;2024-01-30T03:27:20;8.20;75.10
16517;DHT22;8371;52.272;9.746;2024-01-30T03:29:46;8.20;75.30
16517;DHT22;8371;52.272;9.746;2024-01-30T03:32:12;8.20;75.30
16517;DHT22;8371;52.272;9.746;2024-01-30T03:34:37;8.30;75.40
16517;DHT22;8371;52.272;9.746;2024-01-30T03:37:03;8.20;75.40
16517;DHT22;8371;52.272;9.746;2024-01-30T03:39:30;8.10;75.30
16517;DHT22;8371;52.272;9.746;2024-01-30T03:41:56;8.10;75.30
16517;DHT22;8371;52.272;9.746;2024-01-30T03:44:21;8.10;75.20
16517;DHT22;8371;52.272;9.746;2024-01-30T03:46:47;8.10;75.20
16517;DHT22;8371;52.272;9.746;2024-01-30T03:49:13;8.10;75.20
16517;DHT22;8371;52.272;9.746;2024-01-30T03:51:38;8.10;75.30
16517;DHT22;8371;52.272;9.746;2024-01-30T03:54:04;8.00;75.10
16517;DHT22;8371;52.272;9.746;2024-01-30T03:56:30;8.00;75.10
16517;DHT22;8371;52.272;9.746;2024-01-30T03:58:55;8.00;75.10
16517;DHT22;8371;52.272;9.746;2024-01-30T04:01:22;7.90;75.10
16517;DHT22;8371;52.272;9.746;2024-01-30T04:03:48;7.90;75.20
16517;DHT22;8371;52.272;9.746;2024-01-30T04:06:13;7.90;75.10
16517;DHT22;8371;52.272;9.746;2024-01-30T04:08:39;7.80;75.10
16517;DHT22;8371;52.272;9.746;2024-01-30T04:11:05;7.80;75.20
16517;DHT22;8371;52.272;9.746;2024-01-30T04:13:32;7.80;75.60
16517;DHT22;8371;52.272;9.746;2024-01-30T04:15:59;7.70;75.30
16517;DHT22;8371;52.272;9.746;2024-01-30T04:18:27;7.70;75.50
16517;DHT22;8371;52.272;9.746;2024-01-30T04:20:52;7.70;75.20
16517;DHT22;8371;52.272;9.746;2024-01-30T04:23:18;7.60;76.10
16517;DHT22;8371;52.272;9.746;2024-01-30T04:25:44;7.60;75.40
16517;DHT22;8371;52.272;9.746;2024-01-30T04:28:10;7.50;75.40
16517;DHT22;8371;52.272;9.746;2024-01-30T04:30:37;7.50;75.40
16517;DHT22;8371;52.272;9.746;2024-01-30T04:33:03;7.50;75.40
16517;DHT22;8371;52.272;9.746;2024-01-30T04:35:29;7.50;75.50
16517;DHT22;8371;52.272;9.746;2024-01-30T04:37:55;7.40;75.50
16517;DHT22;8371;52.272;9.746;2024-01-30T04:40:21;7.40;75.50
16517;DHT22;8371;52.272;9.746;2024-01-30T04:42:46;7.40;75.70
16517;DHT22;8371;52.272;9.746;2024-01-30T04:45:12;7.30;75.60
16517;DHT22;8371;52.272;9.746;2024-01-30T04:47:38;7.30;75.70
16517;DHT22;8371;52.272;9.746;2024-01-30T04:50:08;7.30;75.70
16517;DHT22;8371;52.272;9.746;2024-01-30T04:52:34;7.30;75.80
16517;DHT22;8371;52.272;9.746;2024-01-30T04:55:00;7.20;75.70
16517;DHT22;8371;52.272;9.746;2024-01-30T04:57:25;7.20;75.70
16517;DHT22;8371;52.272;9.746;2024-01-30T04:59:51;7.20;75.70
16517;DHT22;8371;52.272;9.746;2024-01-30T05:02:17;7.10;75.70
16517;DHT22;8371;52.272;9.746;2024-01-30T05:04:43;7.10;75.70
16517;DHT22;8371;52.272;9.746;2024-01-30T05:07:08;7.10;75.70
16517;DHT22;8371;52.272;9.746;2024-01-30T05:09:34;7.00;75.80
16517;DHT22;8371;52.272;9.746;2024-01-30T05:12:00;7.10;75.90
16517;DHT22;8371;52.272;9.746;2024-01-30T05:14:25;7.00;75.90
16517;DHT22;8371;52.272;9.746;2024-01-30T05:16:51;6.90;76.60
16517;DHT22;8371;52.272;9.746;2024-01-30T05:19:17;6.90;76.10
16517;DHT22;8371;52.272;9.746;2024-01-30T05:21:43;6.90;76.20
16517;DHT22;8371;52.272;9.746;2024-01-30T05:24:08;6.90;76.30
16517;DHT22;8371;52.272;9.746;2024-01-30T05:26:35;6.80;76.40
16517;DHT22;8371;52.272;9.746;2024-01-30T05:29:02;6.80;76.30
16517;DHT22;8371;52.272;9.746;2024-01-30T05:31:27;6.80;76.40
16517;DHT22;8371;52.272;9.746;2024-01-30T05:33:54;6.80;76.60
16517;DHT22;8371;52.272;9.746;2024-01-30T05:36:20;6.80;76.70
16517;DHT22;8371;52.272;9.746;2024-01-30T05:38:46;6.80;76.70
16517;DHT22;8371;52.272;9.746;2024-01-30T05:41:11;6.80;76.80
16517;DHT22;8371;52.272;9.746;2024-01-30T05:43:37;6.80;77.00
16517;DHT22;8371;52.272;9.746;2024-01-30T05:46:03;6.80;77.20
16517;DHT22;8371;52.272;9.746;2024-01-30T05:48:29;6.80;77.00
16517;DHT22;8371;52.272;9.746;2024-01-30T05:50:58;6.80;77.00
16517;DHT22;8371;52.272;9.746;2024-01-30T05:53:25;6.80;76.90
16517;DHT22;8371;52.272;9.746;2024-01-30T05:55:51;6.80;76.90
16517;DHT22;8371;52.272;9.746;2024-01-30T05:58:17;6.80;77.00
16517;DHT22;8371;52.272;9.746;2024-01-30T06:00:42;6.80;76.90
16517;DHT22;8371;52.272;9.746;2024-01-30T06:03:08;6.80;76.90
16517;DHT22;8371;52.272;9.746;2024-01-30T06:05:34;6.80;77.70
16517;DHT22;8371;52.272;9.746;2024-01-30T06:07:59;6.80;76.90
16517;DHT22;8371;52.272;9.746;2024-01-30T06:10:25;6.80;76.90
16517;DHT22;8371;52.272;9.746;2024-01-30T06:12:51;6.70;76.80
16517;DHT22;8371;52.272;9.746;2024-01-30T06:15:16;6.70;76.90
16517;DHT22;8371;52.272;9.746;2024-01-30T06:17:42;6.70;76.80
16517;DHT22;8371;52.272;9.746;2024-01-30T06:20:08;6.70;76.80
16517;DHT22;8371;52.272;9.746;2024-01-30T06:22:33;6.80;77.10
16517;DHT22;8371;52.272;9.746;2024-01-30T06:24:59;6.70;77.20
16517;DHT22;8371;52.272;9.746;2024-01-30T06:27:25;6.70;77.40
16517;DHT22;8371;52.272;9.746;2024-01-30T06:29:50;6.70;77.30
16517;DHT22;8371;52.272;9.746;2024-01-30T06:32:16;6.70;77.30
16517;DHT22;8371;52.272;9.746;2024-01-30T06:34:42;6.70;77.30
16517;DHT22;8371;52.272;9.746;2024-01-30T06:37:09;6.60;77.30
16517;DHT22;8371;52.272;9.746;2024-01-30T06:39:35;6.60;77.30
16517;DHT22;8371;52.272;9.746;2024-01-30T06:42:01;6.60;77.30
16517;DHT22;8371;52.272;9.746;2024-01-30T06:44:27;6.70;77.40
16517;DHT22;8371;52.272;9.746;2024-01-30T06:46:52;6.70;77.40
16517;DHT22;8371;52.272;9.746;2024-01-30T06:49:18;6.70;77.40
16517;DHT22;8371;52.272;9.746;2024-01-30T06:51:44;6.60;78.10
16517;DHT22;8371;52.272;9.746;2024-01-30T06:54:09;6.60;77.30
16517;DHT22;8371;52.272;9.746;2024-01-30T06:56:35;6.60;77.30
16517;DHT22;8371;52.272;9.746;2024-01-30T06:59:01;6.60;77.30
16517;DHT22;8371;52.272;9.746;2024-01-30T07:01:29;6.50;77.30
16517;DHT22;8371;52.272;9.746;2024-01-30T07:03:55;6.60;77.40
16517;DHT22;8371;52.272;9.746;2024-01-30T07:06:21;6.50;77.40
16517;DHT22;8371;52.272;9.746;2024-01-30T07:08:49;6.50;77.50
16517;DHT22;8371;52.272;9.746;2024-01-30T07:11:19;6.50;77.40
16517;DHT22;8371;52.272;9.746;2024-01-30T07:13:45;6.50;77.40
16517;DHT22;8371;52.272;9.746;2024-01-30T07:16:11;6.50;77.50
16517;DHT22;8371;52.272;9.746;2024-01-30T07:18:37;6.50;77.40
16517;DHT22;8371;52.272;9.746;2024-01-30T07:21:03;6.50;77.50
16517;DHT22;8371;52.272;9.746;2024-01-30T07:23:29;6.50;77.60
16517;DHT22;8371;52.272;9.746;2024-01-30T07:25:55;6.50;77.70
16517;DHT22;8371;52.272;9.746;2024-01-30T07:28:21;6.50;77.70
16517;DHT22;8371;52.272;9.746;2024-01-30T07:30:47;6.50;77.80
16517;DHT22;8371;52.272;9.746;2024-01-30T07:33:14;6.50;77.90
16517;DHT22;8371;52.272;9.746;2024-01-30T07:35:39;6.50;77.90
16517;DHT22;8371;52.272;9.746;2024-01-30T07:38:05;6.50;78.00
16517;DHT22;8371;52.272;9.746;2024-01-30T07:40:31;6.50;78.00
16517;DHT22;8371;52.272;9.746;2024-01-30T07:42:58;6.50;78.10
16517;DHT22;8371;52.272;9.746;2024-01-30T07:45:24;6.60;78.10
16517;DHT22;8371;52.272;9.746;2024-01-30T07:47:51;6.60;78.20
16517;DHT22;8371;52.272;9.746;2024-01-30T07:50:17;6.60;78.30
16517;DHT22;8371;52.272;9.746;2024-01-30T07:52:43;6.60;79.20
16517;DHT22;8371;52.272;9.746;2024-01-30T07:55:09;6.70;78.60
16517;DHT22;8371;52.272;9.746;2024-01-30T07:57:35;6.80;78.60
16517;DHT22;8371;52.272;9.746;2024-01-30T08:00:02;6.80;78.70
16517;DHT22;8371;52.272;9.746;2024-01-30T08:02:28;6.90;78.80
16517;DHT22;8371;52.272;9.746;2024-01-30T08:04:54;6.90;78.80
16517;DHT22;8371;52.272;9.746;2024-01-30T08:07:19;7.00;78.80
16517;DHT22;8371;52.272;9.746;2024-01-30T08:09:47;7.10;78.90
16517;DHT22;8371;52.272;9.746;2024-01-30T08:12:13;7.10;78.80
16517;DHT22;8371;52.272;9.746;2024-01-30T08:14:39;7.20;78.80
16517;DHT22;8371;52.272;9.746;2024-01-30T08:17:06;7.30;78.90
16517;DHT22;8371;52.272;9.746;2024-01-30T08:19:33;7.40;78.90
16517;DHT22;8371;52.272;9.746;2024-01-30T08:21:59;7.40;78.90
16517;DHT22;8371;52.272;9.746;2024-01-30T08:24:24;7.50;78.90
16517;DHT22;8371;52.272;9.746;2024-01-30T08:26:51;7.60;78.30
16517;DHT22;8371;52.272;9.746;2024-01-30T08:29:16;7.70;78.90
16517;DHT22;8371;52.272;9.746;2024-01-30T08:31:42;7.70;78.80
16517;DHT22;8371;52.272;9.746;2024-01-30T08:34:08;7.80;78.80
16517;DHT22;8371;52.272;9.746;2024-01-30T08:36:33;7.90;78.90
16517;DHT22;8371;52.272;9.746;2024-01-30T08:38:59;7.90;78.80
16517;DHT22;8371;52.272;9.746;2024-01-30T08:41:25;8.00;78.70
16517;DHT22;8371;52.272;9.746;2024-01-30T08:43:52;8.10;78.80
16517;DHT22;8371;52.272;9.746;2024-01-30T08:46:18;8.20;78.80
16517;DHT22;8371;52.272;9.746;2024-01-30T08:48:44;8.30;78.70
16517;DHT22;8371;52.272;9.746;2024-01-30T08:51:10;8.40;78.70
16517;DHT22;8371;52.272;9.746;2024-01-30T08:53:36;8.50;78.70
16517;DHT22;8371;52.272;9.746;2024-01-30T08:56:06;8.50;78.60
16517;DHT22;8371;52.272;9.746;2024-01-30T08:58:32;8.70;78.70
16517;DHT22;8371;52.272;9.746;2024-01-30T09:00:58;8.70;78.60
16517;DHT22;8371;52.272;9.746;2024-01-30T09:03:24;8.80;78.50
16517;DHT22;8371;52.272;9.746;2024-01-30T09:05:50;8.90;78.50
16517;DHT22;8371;52.272;9.746;2024-01-30T09:08:15;9.00;78.50
16517;DHT22;8371;52.272;9.746;2024-01-30T09:10:41;9.10;78.90
16517;DHT22;8371;52.272;9.746;2024-01-30T09:13:07;9.20;78.60
16517;DHT22;8371;52.272;9.746;2024-01-30T09:15:33;9.20;78.40
16517;DHT22;8371;52.272;9.746;2024-01-30T09:17:58;9.40;78.50
16517;DHT22;8371;52.272;9.746;2024-01-30T09:20:24;9.50;78.40
16517;DHT22;8371;52.272;9.746;2024-01-30T09:22:50;9.50;78.20
16517;DHT22;8371;52.272;9.746;2024-01-30T09:25:15;9.60;78.20
16517;DHT22;8371;52.272;9.746;2024-01-30T09:27:41;9.70;78.10
16517;DHT22;8371;52.272;9.746;2024-01-30T09:30:07;9.80;78.00
16517;DHT22;8371;52.272;9.746;2024-01-30T09:32:33;9.90;77.90
16517;DHT22;8371;52.272;9.746;2024-01-30T09:34:59;10.00;77.90
16517;DHT22;8371;52.272;9.746;2024-01-30T09:37:24;10.10;77.80
16517;DHT22;8371;52.272;9.746;2024-01-30T09:39:50;10.20;77.70
16517;DHT22;8371;52.272;9.746;2024-01-30T09:42:26;10.30;77.60
16517;DHT22;8371;52.272;9.746;2024-01-30T09:44:50;10.40;77.60
16517;DHT22;8371;52.272;9.746;2024-01-30T09:47:16;10.40;77.50
16517;DHT22;8371;52.272;9.746;2024-01-30T09:49:43;10.50;77.50
16517;DHT22;8371;52.272;9.746;2024-01-30T09:52:09;10.60;77.50
16517;DHT22;8371;52.272;9.746;2024-01-30T09:54:35;10.70;77.40
16517;DHT22;8371;52.272;9.746;2024-01-30T09:57:01;10.80;77.40
16517;DHT22;8371;52.272;9.746;2024-01-30T09:59:27;10.90;77.30
16517;DHT22;8371;52.272;9.746;2024-01-30T10:01:52;11.00;77.30
16517;DHT22;8371;52.272;9.746;2024-01-30T10:04:18;11.10;77.20
16517;DHT22;8371;52.272;9.746;2024-01-30T10:06:44;11.20;77.00
16517;DHT22;8371;52.272;9.746;2024-01-30T10:09:10;11.30;77.00
16517;DHT22;8371;52.272;9.746;2024-01-30T10:11:36;11.40;77.70
16517;DHT22;8371;52.272;9.746;2024-01-30T10:14:02;11.40;76.60
16517;DHT22;8371;52.272;9.746;2024-01-30T10:16:28;11.60;76.70
16517;DHT22;8371;52.272;9.746;2024-01-30T10:18:53;11.70;76.60
16517;DHT22;8371;52.272;9.746;2024-01-30T10:21:19;11.70;76.10
16517;DHT22;8371;52.272;9.746;2024-01-30T10:23:45;11.80;76.10
16517;DHT22;8371;52.272;9.746;2024-01-30T10:26:10;11.90;76.00
16517;DHT22;8371;52.272;9.746;2024-01-30T10:28:36;12.00;75.90
16517;DHT22;8371;52.272;9.746;2024-01-30T10:31:03;12.00;75.90
16517;DHT22;8371;52.272;9.746;2024-01-30T10:33:30;12.10;75.80
16517;DHT22;8371;52.272;9.746;2024-01-30T10:36:04;12.10;75.70
16517;DHT22;8371;52.272;9.746;2024-01-30T10:38:30;12.20;75.60
16517;DHT22;8371;52.272;9.746;2024-01-30T10:41:03;12.30;75.70
16517;DHT22;8371;52.272;9.746;2024-01-30T10:43:39;12.40;75.60
16517;DHT22;8371;52.272;9.746;2024-01-30T10:46:18;12.50;75.50
16517;DHT22;8371;52.272;9.746;2024-01-30T10:48:50;12.60;75.50
16517;DHT22;8371;52.272;9.746;2024-01-30T10:51:16;12.60;75.50
16517;DHT22;8371;52.272;9.746;2024-01-30T10:53:43;12.70;75.30
16517;DHT22;8371;52.272;9.746;2024-01-30T10:56:11;12.80;75.30
16517;DHT22;8371;52.272;9.746;2024-01-30T10:58:38;12.90;75.40
16517;DHT22;8371;52.272;9.746;2024-01-30T11:01:05;13.00;75.30
16517;DHT22;8371;52.272;9.746;2024-01-30T11:03:32;13.10;75.20
16517;DHT22;8371;52.272;9.746;2024-01-30T11:06:00;13.20;75.20
16517;DHT22;8371;52.272;9.746;2024-01-30T11:08:27;13.30;75.00
16517;DHT22;8371;52.272;9.746;2024-01-30T11:10:57;13.40;75.00
16517;DHT22;8371;52.272;9.746;2024-01-30T11:13:29;13.50;74.90
16517;DHT22;8371;52.272;9.746;2024-01-30T11:15:55;13.60;74.70
16517;DHT22;8371;52.272;9.746;2024-01-30T11:18:29;13.70;74.60
16517;DHT22;8371;52.272;9.746;2024-01-30T11:20:59;13.80;74.60
16517;DHT22;8371;52.272;9.746;2024-01-30T11:23:28;13.90;74.40
16517;DHT22;8371;52.272;9.746;2024-01-30T11:25:54;14.10;74.40
16517;DHT22;8371;52.272;9.746;2024-01-30T11:28:21;14.00;74.10
16517;DHT22;8371;52.272;9.746;2024-01-30T11:30:48;14.10;74.10
16517;DHT22;8371;52.272;9.746;2024-01-30T11:33:27;14.20;74.10
16517;DHT22;8371;52.272;9.746;2024-01-30T11:35:57;14.20;74.00
16517;DHT22;8371;52.272;9.746;2024-01-30T11:38:26;14.30;73.90
16517;DHT22;8371;52.272;9.746;2024-01-30T11:40:55;14.40;73.80
16517;DHT22;8371;52.272;9.746;2024-01-30T11:43:22;14.50;73.80
16517;DHT22;8371;52.272;9.746;2024-01-30T11:45:48;14.60;73.80
16517;DHT22;8371;52.272;9.746;2024-01-30T11:48:14;14.60;73.50
16517;DHT22;8371;52.272;9.746;2024-01-30T11:50:40;14.70;73.30
16517;DHT22;8371;52.272;9.746;2024-01-30T11:53:06;14.70;73.10
16517;DHT22;8371;52.272;9.746;2024-01-30T11:55:33;14.80;73.00
16517;DHT22;8371;52.272;9.746;2024-01-30T11:58:00;14.80;72.70
16517;DHT22;8371;52.272;9.746;2024-01-30T12:00:26;14.80;72.50
16517;DHT22;8371;52.272;9.746;2024-01-30T12:02:52;14.90;71.90
16517;DHT22;8371;52.272;9.746;2024-01-30T12:05:20;14.90;71.70
16517;DHT22;8371;52.272;9.746;2024-01-30T12:07:46;14.80;71.10
16517;DHT22;8371;52.272;9.746;2024-01-30T12:10:15;14.90;71.70
16517;DHT22;8371;52.272;9.746;2024-01-30T12:12:46;14.80;71.70
16517;DHT22;8371;52.272;9.746;2024-01-30T12:15:13;14.80;71.60
16517;DHT22;8371;52.272;9.746;2024-01-30T12:17:39;14.80;71.60
16517;DHT22;8371;52.272;9.746;2024-01-30T12:20:23;14.70;71.70
16517;DHT22;8371;52.272;9.746;2024-01-30T12:22:56;14.70;71.80
16517;DHT22;8371;52.272;9.746;2024-01-30T12:25:22;14.70;72.00
16517;DHT22;8371;52.272;9.746;2024-01-30T12:27:49;14.80;72.20
16517;DHT22;8371;52.272;9.746;2024-01-30T12:30:17;14.80;72.20
16517;DHT22;8371;52.272;9.746;2024-01-30T12:32:45;14.80;72.10
16517;DHT22;8371;52.272;9.746;2024-01-30T12:35:12;14.80;72.00
16517;DHT22;8371;52.272;9.746;2024-01-30T12:37:39;14.90;72.00
16517;DHT22;8371;52.272;9.746;2024-01-30T12:40:06;14.90;71.90
16517;DHT22;8371;52.272;9.746;2024-01-30T12:42:32;14.90;71.90
16517;DHT22;8371;52.272;9.746;2024-01-30T12:44:58;14.90;71.90
16517;DHT22;8371;52.272;9.746;2024-01-30T12:47:25;14.90;71.90
16517;DHT22;8371;52.272;9.746;2024-01-30T12:49:51;14.90;71.90
16517;DHT22;8371;52.272;9.746;2024-01-30T12:52:19;15.00;72.00
16517;DHT22;8371;52.272;9.746;2024-01-30T12:54:45;15.00;72.00
16517;DHT22;8371;52.272;9.746;2024-01-30T12:57:11;15.00;72.00
16517;DHT22;8371;52.272;9.746;2024-01-30T12:59:37;15.10;72.10
16517;DHT22;8371;52.272;9.746;2024-01-30T13:02:03;15.00;72.10
16517;DHT22;8371;52.272;9.746;2024-01-30T13:04:29;15.10;72.30
16517;DHT22;8371;52.272;9.746;2024-01-30T13:06:55;15.10;72.30
16517;DHT22;8371;52.272;9.746;2024-01-30T13:09:20;15.10;72.30
16517;DHT22;8371;52.272;9.746;2024-01-30T13:11:46;15.20;72.20
16517;DHT22;8371;52.272;9.746;2024-01-30T13:14:12;15.20;72.20
16517;DHT22;8371;52.272;9.746;2024-01-30T13:16:38;15.30;72.00
16517;DHT22;8371;52.272;9.746;2024-01-30T13:19:03;15.30;71.80
16517;DHT22;8371;52.272;9.746;2024-01-30T13:21:29;15.30;71.70
16517;DHT22;8371;52.272;9.746;2024-01-30T13:23:55;15.30;71.60
16517;DHT22;8371;52.272;9.746;2024-01-30T13:26:21;15.30;71.50
16517;DHT22;8371;52.272;9.746;2024-01-30T13:28:47;15.30;71.50
16517;DHT22;8371;52.272;9.746;2024-01-30T13:31:14;15.10;71.40
16517;DHT22;8371;52.272;9.746;2024-01-30T13:33:40;15.30;71.50
16517;DHT22;8371;52.272;9.746;2024-01-30T13:36:07;15.30;71.50
16517;DHT22;8371;52.272;9.746;2024-01-30T13:38:33;15.30;71.40
16517;DHT22;8371;52.272;9.746;2024-01-30T13:40:59;15.30;71.30
16517;DHT22;8371;52.272;9.746;2024-01-30T13:43:26;15.30;71.30
16517;DHT22;8371;52.272;9.746;2024-01-30T13:45:52;15.20;71.30
16517;DHT22;8371;52.272;9.746;2024-01-30T13:48:19;15.30;71.30
16517;DHT22;8371;52.272;9.746;2024-01-30T13:50:44;15.30;71.30
16517;DHT22;8371;52.272;9.746;2024-01-30T13:53:11;15.30;71.20
16517;DHT22;8371;52.272;9.746;2024-01-30T13:55:37;15.20;71.10
16517;DHT22;8371;52.272;9.746;2024-01-30T13:58:05;15.20;71.00
16517;DHT22;8371;52.272;9.746;2024-01-30T14:00:31;15.20;71.10
16517;DHT22;8371;52.272;9.746;2024-01-30T14:02:57;15.20;71.10
16517;DHT22;8371;52.272;9.746;2024-01-30T14:05:24;15.20;71.00
16517;DHT22;8371;52.272;9.746;2024-01-30T14:07:51;15.20;71.00
16517;DHT22;8371;52.272;9.746;2024-01-30T14:10:17;15.10;71.00
16517;DHT22;8371;52.272;9.746;2024-01-30T14:12:43;15.10;70.90
16517;DHT22;8371;52.272;9.746;2024-01-30T14:15:10;15.10;70.90
16517;DHT22;8371;52.272;9.746;2024-01-30T14:17:36;15.10;70.80
16517;DHT22;8371;52.272;9.746;2024-01-30T14:20:04;15.00;70.80
16517;DHT22;8371;52.272;9.746;2024-01-30T14:22:31;15.00;70.70
16517;DHT22;8371;52.272;9.746;2024-01-30T14:24:57;15.00;70.70
16517;DHT22;8371;52.272;9.746;2024-01-30T14:27:23;15.00;70.70
16517;DHT22;8371;52.272;9.746;2024-01-30T14:29:48;15.00;70.70
16517;DHT22;8371;52.272;9.746;2024-01-30T14:32:14;14.90;70.60
16517;DHT22;8371;52.272;9.746;2024-01-30T14:34:40;14.90;70.70
16517;DHT22;8371;52.272;9.746;2024-01-30T14:37:05;14.90;70.70
16517;DHT22;8371;52.272;9.746;2024-01-30T14:39:31;14.80;70.60
16517;DHT22;8371;52.272;9.746;2024-01-30T14:41:58;14.70;70.70
16517;DHT22;8371;52.272;9.746;2024-01-30T14:44:24;14.80;71.20
16517;DHT22;8371;52.272;9.746;2024-01-30T14:46:49;14.70;70.70
16517;DHT22;8371;52.272;9.746;2024-01-30T14:49:15;14.70;70.70
16517;DHT22;8371;52.272;9.746;2024-01-30T14:51:41;14.70;70.70
16517;DHT22;8371;52.272;9.746;2024-01-30T14:54:07;14.70;70.70
16517;DHT22;8371;52.272;9.746;2024-01-30T14:56:33;14.60;70.80
16517;DHT22;8371;52.272;9.746;2024-01-30T14:58:59;14.60;70.90
16517;DHT22;8371;52.272;9.746;2024-01-30T15:01:24;14.60;70.90
16517;DHT22;8371;52.272;9.746;2024-01-30T15:03:50;14.50;70.90
16517;DHT22;8371;52.272;9.746;2024-01-30T15:06:21;14.50;71.00
16517;DHT22;8371;52.272;9.746;2024-01-30T15:08:48;14.50;71.00
16517;DHT22;8371;52.272;9.746;2024-01-30T15:11:14;14.50;71.10
16517;DHT22;8371;52.272;9.746;2024-01-30T15:13:40;14.40;71.00
16517;DHT22;8371;52.272;9.746;2024-01-30T15:16:05;14.40;71.10
16517;DHT22;8371;52.272;9.746;2024-01-30T15:18:32;14.40;71.00
16517;DHT22;8371;52.272;9.746;2024-01-30T15:20:57;14.30;71.00
16517;DHT22;8371;52.272;9.746;2024-01-30T15:23:23;14.30;71.10
16517;DHT22;8371;52.272;9.746;2024-01-30T15:25:49;14.30;71.00
16517;DHT22;8371;52.272;9.746;2024-01-30T15:28:14;14.20;71.00
16517;DHT22;8371;52.272;9.746;2024-01-30T15:30:41;14.20;71.10
16517;DHT22;8371;52.272;9.746;2024-01-30T15:33:10;14.10;70.90
16517;DHT22;8371;52.272;9.746;2024-01-30T15:35:35;14.10;70.90
16517;DHT22;8371;52.272;9.746;2024-01-30T15:38:04;14.10;71.00
16517;DHT22;8371;52.272;9.746;2024-01-30T15:40:32;14.10;71.00
16517;DHT22;8371;52.272;9.746;2024-01-30T15:42:58;14.00;71.00
16517;DHT22;8371;52.272;9.746;2024-01-30T15:45:24;13.90;71.00
16517;DHT22;8371;52.272;9.746;2024-01-30T15:47:49;13.90;71.00